Impros — D5BS7 — position and weather

sailwx.info

Track history (hours):
 
Tides and Currents Weather Stations Pressure Air Temp Water Temp Dewpoint Dewpoint Depression Visibility Wind Speed Wind Dir Waves Ship Positions

Impros

Last reported at 2014-Jul-25 00:06 UTC. Time now 2014-Jul-30 05:09 UTC.
Position N 01°09' E 103°43'.

Length 244 m; draft 7 m.

Type: Tanker. MMSI: 636015595.

Date/timePositionNaut miles runAvg speedWind from/ knotsBaromVisibWave heightAir tempDewpointWater temp
2014-Jul-25 00:06N 01°09' E 103°43'5 9.6
2014-Jul-24 23:33N 01°10' E 103°48'8 8.0
2014-Jul-24 22:34N 01°14' E 103°54'1 1.3
2014-Jul-24 21:28N 01°16' E 103°54'0 0.0
2014-Jul-24 20:31N 01°16' E 103°54'0 0.1
2014-Jul-24 19:31N 01°16' E 103°54'0 0.0
2014-Jul-24 18:31N 01°16' E 103°54'0 0.1
2014-Jul-24 17:31N 01°16' E 103°54'0 0.1
2014-Jul-24 16:31N 01°16' E 103°54'0 0.0
2014-Jul-24 15:31N 01°16' E 103°54'0 0.1
2014-Jul-24 14:31N 01°16' E 103°54'0 0.1
2014-Jul-24 13:31N 01°16' E 103°54'0 0.1
2014-Jul-24 12:31N 01°15' E 103°54'0 0.0
2014-Jul-24 11:31N 01°15' E 103°54'0 0.0
2014-Jul-24 10:31N 01°15' E 103°54'0 0.0
2014-Jul-24 09:31N 01°15' E 103°54'0 0.1
2014-Jul-24 08:25N 01°15' E 103°54'0 0.1
2014-Jul-24 07:31N 01°16' E 103°54'0 0.0
2014-Jul-24 06:31N 01°16' E 103°54'0 0.0
2014-Jul-24 05:31N 01°16' E 103°54'0 0.0
2014-Jul-24 04:31N 01°16' E 103°54'0 0.0
2014-Jul-24 03:34N 01°16' E 103°54'0 0.0
2014-Jul-24 02:33N 01°16' E 103°54'0 0.1
2014-Jul-24 01:33N 01°16' E 103°54'2 2.0
2014-Jul-24 00:34N 01°16' E 103°56'4 4.0
2014-Jul-23 23:33N 01°15' E 104°00'  
Track history (hours):
 
Tides and Currents Weather Stations Pressure Air Temp Water Temp Dewpoint Dewpoint Depression Visibility Wind Speed Wind Dir Waves Ship Positions

Impros

Last reported at 2014-Jul-25 00:06 UTC. Time now 2014-Jul-30 05:09 UTC.
Position N 01°09' E 103°43'.

Length 244 m; draft 7 m.

Type: Tanker. MMSI: 636015595.

Date/timePositionNaut miles runAvg speedWind from/ knotsBaromVisibWave heightAir tempDewpointWater temp
2014-Jul-25 00:06N 01°09' E 103°43'5 9.6
2014-Jul-24 23:33N 01°10' E 103°48'8 8.0
2014-Jul-24 22:34N 01°14' E 103°54'1 1.3
2014-Jul-24 21:28N 01°16' E 103°54'0 0.0
2014-Jul-24 20:31N 01°16' E 103°54'0 0.1
2014-Jul-24 19:31N 01°16' E 103°54'0 0.0
2014-Jul-24 18:31N 01°16' E 103°54'0 0.1
2014-Jul-24 17:31N 01°16' E 103°54'0 0.1
2014-Jul-24 16:31N 01°16' E 103°54'0 0.0
2014-Jul-24 15:31N 01°16' E 103°54'0 0.1
2014-Jul-24 14:31N 01°16' E 103°54'0 0.1
2014-Jul-24 13:31N 01°16' E 103°54'0 0.1
2014-Jul-24 12:31N 01°15' E 103°54'0 0.0
2014-Jul-24 11:31N 01°15' E 103°54'0 0.0
2014-Jul-24 10:31N 01°15' E 103°54'0 0.0
2014-Jul-24 09:31N 01°15' E 103°54'0 0.1
2014-Jul-24 08:25N 01°15' E 103°54'0 0.1
2014-Jul-24 07:31N 01°16' E 103°54'0 0.0
2014-Jul-24 06:31N 01°16' E 103°54'0 0.0
2014-Jul-24 05:31N 01°16' E 103°54'0 0.0
2014-Jul-24 04:31N 01°16' E 103°54'0 0.0
2014-Jul-24 03:34N 01°16' E 103°54'0 0.0
2014-Jul-24 02:33N 01°16' E 103°54'0 0.1
2014-Jul-24 01:33N 01°16' E 103°54'2 2.0
2014-Jul-24 00:34N 01°16' E 103°56'4 4.0
2014-Jul-23 23:33N 01°15' E 104°00'  

Dump ship's entire track history